createdAt,value
2018-05-27T00:01:34.970Z,99.90
2018-05-27T00:04:01.922Z,99.90
2018-05-27T00:06:29.182Z,99.90
2018-05-27T00:08:56.027Z,99.90
2018-05-27T00:11:22.877Z,99.90
2018-05-27T00:13:49.663Z,99.90
2018-05-27T00:16:16.475Z,99.90
2018-05-27T00:18:43.627Z,99.90
2018-05-27T00:21:10.473Z,99.90
2018-05-27T00:23:37.793Z,99.90
2018-05-27T00:26:04.787Z,99.90
2018-05-27T00:28:32.043Z,99.90
2018-05-27T00:30:58.998Z,99.90
2018-05-27T00:33:25.844Z,99.90
2018-05-27T00:35:53.025Z,99.90
2018-05-27T00:38:20.158Z,99.90
2018-05-27T00:40:47.110Z,99.90
2018-05-27T00:43:14.057Z,99.90
2018-05-27T00:45:41.416Z,99.90
2018-05-27T00:48:09.293Z,99.90
2018-05-27T00:50:36.246Z,99.90
2018-05-27T00:53:03.190Z,99.90
2018-05-27T00:55:30.039Z,99.90
2018-05-27T00:57:56.787Z,99.90
2018-05-27T01:00:23.634Z,99.90
2018-05-27T01:02:50.391Z,99.90
2018-05-27T01:05:17.228Z,99.90
2018-05-27T01:07:44.183Z,99.90
2018-05-27T01:10:10.969Z,99.90
2018-05-27T01:12:37.882Z,99.90
2018-05-27T01:15:04.828Z,99.90
2018-05-27T01:17:31.884Z,99.90
2018-05-27T01:19:59.344Z,99.90
2018-05-27T01:22:26.091Z,99.90
2018-05-27T01:24:53.045Z,99.90
2018-05-27T01:27:19.892Z,99.90
2018-05-27T01:29:46.635Z,99.90
2018-05-27T01:32:13.595Z,99.90
2018-05-27T01:34:40.440Z,99.90
2018-05-27T01:37:07.183Z,99.90
2018-05-27T01:39:34.134Z,99.90
2018-05-27T01:42:00.981Z,99.90
2018-05-27T01:44:28.138Z,99.90
2018-05-27T01:46:54.885Z,99.90
2018-05-27T01:49:22.551Z,99.90
2018-05-27T01:51:49.401Z,99.90
2018-05-27T01:54:16.556Z,99.90
2018-05-27T01:56:43.509Z,99.90
2018-05-27T01:59:10.459Z,99.90
2018-05-27T02:01:37.411Z,99.90
2018-05-27T02:04:04.360Z,99.90
2018-05-27T02:06:31.211Z,99.90
2018-05-27T02:08:58.469Z,99.90
2018-05-27T02:11:25.428Z,99.90
2018-05-27T02:13:52.372Z,99.90
2018-05-27T02:16:19.220Z,99.90
2018-05-27T02:18:46.066Z,99.90
2018-05-27T02:21:13.020Z,99.90
2018-05-27T02:23:39.867Z,99.90
2018-05-27T02:26:06.716Z,99.90
2018-05-27T02:28:33.563Z,99.90
2018-05-27T02:31:00.521Z,99.90
2018-05-27T02:33:27.466Z,99.90
2018-05-27T02:35:54.448Z,99.90
2018-05-27T02:38:21.369Z,99.90
2018-05-27T02:40:48.320Z,99.90
2018-05-27T02:43:15.166Z,99.90
2018-05-27T02:45:42.017Z,99.90
2018-05-27T02:48:08.763Z,99.90
2018-05-27T02:50:36.431Z,99.90
2018-05-27T02:53:03.279Z,99.90
2018-05-27T02:55:30.125Z,99.90
2018-05-27T02:57:56.979Z,99.90
2018-05-27T03:00:23.825Z,99.90
2018-05-27T03:02:50.774Z,99.90
2018-05-27T03:05:18.032Z,99.90
2018-05-27T03:07:44.780Z,99.90
2018-05-27T03:10:11.525Z,99.90
2018-05-27T03:12:38.376Z,99.90
2018-05-27T03:15:05.325Z,99.90
2018-05-27T03:17:32.175Z,99.90
2018-05-27T03:19:59.024Z,99.90
2018-05-27T03:22:25.871Z,99.90
2018-05-27T03:24:52.723Z,99.90
2018-05-27T03:27:19.568Z,99.90
2018-05-27T03:29:46.420Z,99.90
2018-05-27T03:32:14.495Z,99.90
2018-05-27T03:34:41.445Z,99.90
2018-05-27T03:37:08.293Z,99.90
2018-05-27T03:39:35.147Z,99.90
2018-05-27T03:42:01.890Z,99.90
2018-05-27T03:44:28.737Z,99.90
2018-05-27T03:46:55.585Z,99.90
2018-05-27T03:49:22.435Z,99.90
2018-05-27T03:51:50.309Z,99.90
2018-05-27T03:54:17.258Z,99.90
2018-05-27T03:56:44.003Z,99.90
2018-05-27T03:59:10.955Z,99.90
2018-05-27T04:01:37.811Z,99.90
2018-05-27T04:04:16.933Z,99.90
2018-05-27T04:06:55.961Z,99.90
2018-05-27T04:09:22.913Z,99.90
2018-05-27T04:11:49.861Z,99.90
2018-05-27T04:14:16.814Z,99.90
2018-05-27T04:16:43.761Z,99.90
2018-05-27T04:19:10.716Z,99.90
2018-05-27T04:21:37.666Z,99.90
2018-05-27T04:24:04.425Z,99.90
2018-05-27T04:26:31.366Z,99.90
2018-05-27T04:28:58.211Z,93.30
2018-05-27T04:31:24.957Z,82.40
2018-05-27T04:33:51.908Z,70.70
2018-05-27T04:36:18.859Z,60.70
2018-05-27T04:38:45.809Z,58.50
2018-05-27T04:41:12.763Z,56.80
2018-05-27T04:43:39.713Z,54.40
2018-05-27T04:46:06.458Z,51.20
2018-05-27T04:48:33.307Z,50.90
2018-05-27T04:51:00.259Z,50.90
2018-05-27T04:53:27.208Z,50.00
2018-05-27T04:55:54.364Z,48.80
2018-05-27T04:58:21.212Z,48.40
2018-05-27T05:00:48.062Z,47.70
2018-05-27T05:03:15.013Z,49.20
2018-05-27T05:05:41.862Z,48.30
2018-05-27T05:08:08.606Z,48.40
2018-05-27T05:10:35.455Z,47.80
2018-05-27T05:13:02.202Z,46.40
2018-05-27T05:15:29.152Z,47.10
2018-05-27T05:17:56.111Z,45.00
2018-05-27T05:20:23.056Z,45.30
2018-05-27T05:22:49.802Z,45.60
2018-05-27T05:25:16.649Z,45.30
2018-05-27T05:27:43.410Z,45.70
2018-05-27T05:30:10.247Z,44.60
2018-05-27T05:32:37.196Z,44.50
2018-05-27T05:35:04.865Z,42.50
2018-05-27T05:37:31.814Z,42.40
2018-05-27T05:39:58.662Z,42.70
2018-05-27T05:42:25.921Z,41.00
2018-05-27T05:44:52.874Z,40.20
2018-05-27T05:47:19.824Z,40.20
2018-05-27T05:49:46.570Z,37.80
2018-05-27T05:52:13.522Z,39.80
2018-05-27T05:54:41.086Z,39.60
2018-05-27T05:57:07.935Z,39.60
2018-05-27T05:59:35.399Z,38.20
2018-05-27T06:02:02.145Z,38.30
2018-05-27T06:04:29.094Z,38.90
2018-05-27T06:06:56.046Z,38.10
2018-05-27T06:09:22.894Z,36.10
2018-05-27T06:11:49.849Z,34.70
2018-05-27T06:14:16.801Z,33.50
2018-05-27T06:16:43.645Z,35.50
2018-05-27T06:19:10.356Z,35.30
2018-05-27T06:21:38.059Z,35.20
2018-05-27T06:24:04.804Z,35.10
2018-05-27T06:26:31.653Z,35.00
2018-05-27T06:28:58.915Z,34.00
2018-05-27T06:31:25.760Z,32.90
2018-05-27T06:33:52.508Z,31.60
2018-05-27T06:36:19.456Z,31.20
2018-05-27T06:38:46.376Z,33.50
2018-05-27T06:41:13.462Z,32.70
2018-05-27T06:43:40.417Z,34.80
2018-05-27T06:46:07.261Z,33.50
2018-05-27T06:48:34.215Z,33.80
2018-05-27T06:51:01.164Z,35.20
2018-05-27T06:53:28.012Z,34.10
2018-05-27T06:55:55.576Z,33.40
2018-05-27T06:58:22.527Z,33.40
2018-05-27T07:00:49.481Z,33.20
2018-05-27T07:03:16.943Z,33.50
2018-05-27T07:05:44.610Z,32.80
2018-05-27T07:08:11.357Z,32.70
2018-05-27T07:10:38.203Z,31.40
2018-05-27T07:13:05.157Z,32.20
2018-05-27T07:15:32.106Z,32.00
2018-05-27T07:17:59.058Z,33.30
2018-05-27T07:20:27.167Z,32.50
2018-05-27T07:22:54.394Z,30.50
2018-05-27T07:25:22.058Z,30.00
2018-05-27T07:27:49.316Z,30.00
2018-05-27T07:30:16.166Z,32.40
2018-05-27T07:32:42.912Z,32.80
2018-05-27T07:35:09.768Z,32.40
2018-05-27T07:37:37.634Z,30.20
2018-05-27T07:40:04.581Z,30.10
2018-05-27T07:42:31.532Z,29.80
2018-05-27T07:44:58.381Z,30.90
2018-05-27T07:47:25.230Z,31.00
2018-05-27T07:49:52.183Z,29.20
2018-05-27T07:52:19.177Z,29.90
2018-05-27T07:54:46.087Z,29.90
2018-05-27T07:57:13.750Z,28.00
2018-05-27T07:59:40.701Z,28.10
2018-05-27T08:02:07.658Z,27.50
2018-05-27T08:04:34.603Z,28.00
2018-05-27T08:07:01.503Z,28.70
2018-05-27T08:09:28.406Z,28.80
2018-05-27T08:11:55.252Z,28.40
2018-05-27T08:14:21.965Z,28.40
2018-05-27T08:16:49.563Z,30.40
2018-05-27T08:19:16.309Z,30.40
2018-05-27T08:21:43.160Z,31.20
2018-05-27T08:24:10.929Z,31.40
2018-05-27T08:26:37.780Z,32.40
2018-05-27T08:29:04.523Z,32.00
2018-05-27T08:31:31.481Z,31.50
2018-05-27T08:33:58.324Z,31.70
2018-05-27T08:36:25.287Z,32.20
2018-05-27T08:38:52.226Z,33.30
2018-05-27T08:41:19.072Z,33.70
2018-05-27T08:43:46.025Z,34.10
2018-05-27T08:46:13.282Z,32.80
2018-05-27T08:48:40.233Z,33.50
2018-05-27T08:51:07.084Z,34.30
2018-05-27T08:53:34.034Z,35.20
2018-05-27T08:56:00.883Z,35.90
2018-05-27T08:58:28.654Z,39.90
2018-05-27T09:00:55.500Z,39.90
2018-05-27T09:03:22.246Z,41.60
2018-05-27T09:05:49.095Z,42.50
2018-05-27T09:08:16.150Z,42.60
2018-05-27T09:10:43.003Z,41.80
2018-05-27T09:13:09.950Z,42.80
2018-05-27T09:15:36.805Z,42.20
2018-05-27T09:18:03.645Z,41.50
2018-05-27T09:20:30.598Z,42.80
2018-05-27T09:22:57.549Z,42.70
2018-05-27T09:25:24.497Z,46.20
2018-05-27T09:27:51.244Z,46.30
2018-05-27T09:30:18.199Z,45.80
2018-05-27T09:32:45.151Z,47.90
2018-05-27T09:35:11.994Z,45.30
2018-05-27T09:37:38.945Z,43.60
2018-05-27T09:40:05.798Z,43.40
2018-05-27T09:42:32.503Z,42.80
2018-05-27T09:45:00.061Z,44.10
2018-05-27T09:47:26.956Z,44.10
2018-05-27T09:49:53.909Z,44.30
2018-05-27T09:52:20.860Z,44.20
2018-05-27T09:54:47.808Z,45.60
2018-05-27T09:57:14.758Z,45.60
2018-05-27T09:59:41.710Z,47.20
2018-05-27T10:02:08.455Z,45.40
2018-05-27T10:04:35.304Z,45.30
2018-05-27T10:07:02.155Z,44.00
2018-05-27T10:09:29.106Z,44.70
2018-05-27T10:11:56.056Z,45.80
2018-05-27T10:14:22.908Z,43.90
2018-05-27T10:16:49.857Z,46.20
2018-05-27T10:19:16.807Z,46.90
2018-05-27T10:21:43.654Z,47.20
2018-05-27T10:24:10.607Z,45.30
2018-05-27T10:26:37.456Z,44.00
2018-05-27T10:29:04.205Z,45.10
2018-05-27T10:31:31.150Z,43.00
2018-05-27T10:33:57.999Z,43.30
2018-05-27T10:36:24.860Z,44.10
2018-05-27T10:38:51.904Z,43.00
2018-05-27T10:41:18.648Z,44.20
2018-05-27T10:43:45.499Z,44.50
2018-05-27T10:46:12.349Z,42.80
2018-05-27T10:48:39.194Z,43.80
2018-05-27T10:51:06.043Z,44.20
2018-05-27T10:53:32.895Z,44.70
2018-05-27T10:55:59.739Z,44.50
2018-05-27T10:58:26.591Z,44.10
2018-05-27T11:00:54.255Z,43.90
2018-05-27T11:03:21.213Z,43.90
2018-05-27T11:05:48.094Z,44.20
2018-05-27T11:08:14.907Z,42.90
2018-05-27T11:11:05.362Z,42.40
2018-05-27T11:13:36.029Z,43.40
2018-05-27T11:16:02.981Z,43.10
2018-05-27T11:18:29.826Z,44.00
2018-05-27T11:20:56.779Z,43.90
2018-05-27T11:23:23.626Z,43.60
2018-05-27T11:25:50.581Z,44.10
2018-05-27T11:28:17.427Z,44.60
2018-05-27T11:30:44.291Z,44.50
2018-05-27T11:33:11.020Z,43.60
2018-05-27T11:35:38.015Z,43.30
2018-05-27T11:38:06.355Z,43.50
2018-05-27T11:40:33.203Z,43.50
2018-05-27T11:42:59.950Z,43.50
2018-05-27T11:45:26.902Z,45.60
2018-05-27T11:47:53.855Z,45.00
2018-05-27T11:50:20.806Z,45.30
2018-05-27T11:52:47.756Z,45.20
2018-05-27T11:55:14.707Z,45.00
2018-05-27T11:57:41.673Z,45.10
2018-05-27T12:00:08.611Z,45.10
2018-05-27T12:02:36.274Z,44.90
2018-05-27T12:05:03.141Z,44.90
2018-05-27T12:07:30.081Z,44.80
2018-05-27T12:09:56.778Z,44.90
2018-05-27T12:12:23.566Z,44.30
2018-05-27T12:14:50.313Z,45.00
2018-05-27T12:17:17.265Z,45.70
2018-05-27T12:19:44.010Z,45.50
2018-05-27T12:22:10.859Z,45.70
2018-05-27T12:24:37.707Z,46.10
2018-05-27T12:27:04.454Z,46.20
2018-05-27T12:29:31.302Z,46.60
2018-05-27T12:31:58.153Z,46.40
2018-05-27T12:34:25.001Z,46.60
2018-05-27T12:36:51.853Z,48.40
2018-05-27T12:39:18.699Z,46.90
2018-05-27T12:41:45.650Z,46.70
2018-05-27T12:44:12.602Z,47.50
2018-05-27T12:46:39.453Z,48.00
2018-05-27T12:49:06.296Z,48.50
2018-05-27T12:51:33.248Z,47.60
2018-05-27T12:53:59.994Z,47.40
2018-05-27T12:56:26.843Z,47.40
2018-05-27T12:58:53.691Z,47.10
2018-05-27T13:01:20.441Z,46.20
2018-05-27T13:03:50.056Z,45.40
2018-05-27T13:06:17.206Z,45.30
2018-05-27T13:08:44.158Z,44.40
2018-05-27T13:11:11.107Z,42.70
2018-05-27T13:13:38.060Z,43.80
2018-05-27T13:16:05.011Z,45.30
2018-05-27T13:18:32.267Z,44.80
2018-05-27T13:20:59.119Z,44.60
2018-05-27T13:23:25.965Z,43.60
2018-05-27T13:25:52.815Z,42.30
2018-05-27T13:28:19.664Z,41.10
2018-05-27T13:30:46.615Z,41.00
2018-05-27T13:33:13.360Z,42.10
2018-05-27T13:35:40.152Z,42.70
2018-05-27T13:38:07.979Z,38.90
2018-05-27T13:40:34.929Z,38.90
2018-05-27T13:43:01.676Z,39.30
2018-05-27T13:45:28.526Z,39.50
2018-05-27T13:47:55.272Z,38.50
2018-05-27T13:50:22.219Z,37.70
2018-05-27T13:52:49.175Z,38.90
2018-05-27T13:55:16.169Z,38.40
2018-05-27T13:57:44.611Z,39.50
2018-05-27T14:00:11.562Z,39.50
2018-05-27T14:02:39.238Z,39.70
2018-05-27T14:05:07.715Z,40.20
2018-05-27T14:07:34.663Z,40.20
2018-05-27T14:10:01.618Z,38.20
2018-05-27T14:12:28.567Z,37.70
2018-05-27T14:14:55.416Z,39.20
2018-05-27T14:17:22.365Z,39.60
2018-05-27T14:19:49.214Z,39.20
2018-05-27T14:22:16.370Z,39.40
2018-05-27T14:24:44.037Z,37.80
2018-05-27T14:27:11.092Z,37.70
2018-05-27T14:29:38.041Z,38.80
2018-05-27T14:32:04.787Z,38.10
2018-05-27T14:34:31.636Z,35.10
2018-05-27T14:36:58.590Z,37.60
2018-05-27T14:39:25.540Z,37.90
2018-05-27T14:41:52.394Z,37.70
2018-05-27T14:44:19.240Z,35.70
2018-05-27T14:46:46.188Z,35.10
2018-05-27T14:49:13.042Z,35.30
2018-05-27T14:51:39.885Z,37.30
2018-05-27T14:54:06.840Z,36.20
2018-05-27T14:56:33.685Z,36.10
2018-05-27T14:59:00.533Z,35.70
2018-05-27T15:01:27.484Z,37.30
2018-05-27T15:03:54.331Z,35.60
2018-05-27T15:06:22.107Z,37.50
2018-05-27T15:08:49.057Z,37.50
2018-05-27T15:11:15.995Z,35.60
2018-05-27T15:13:42.851Z,36.30
2018-05-27T15:16:09.807Z,35.30
2018-05-27T15:18:36.768Z,36.60
2018-05-27T15:21:03.707Z,36.40
2018-05-27T15:23:30.655Z,35.10
2018-05-27T15:25:57.607Z,35.00
2018-05-27T15:28:24.355Z,37.50
2018-05-27T15:30:51.309Z,36.90
2018-05-27T15:33:18.256Z,37.50
2018-05-27T15:35:45.103Z,35.60
2018-05-27T15:38:11.956Z,34.10
2018-05-27T15:40:38.907Z,35.40
2018-05-27T15:43:05.858Z,36.20
2018-05-27T15:45:32.806Z,35.40
2018-05-27T15:47:59.758Z,36.60
2018-05-27T15:50:26.706Z,35.70
2018-05-27T15:52:53.661Z,36.10
2018-05-27T15:55:20.405Z,35.80
2018-05-27T15:57:47.357Z,35.90
2018-05-27T16:00:14.219Z,36.30
2018-05-27T16:02:41.157Z,37.50
2018-05-27T16:05:08.208Z,38.30
2018-05-27T16:07:35.264Z,37.30
2018-05-27T16:10:02.215Z,38.00
2018-05-27T16:12:29.164Z,38.10
2018-05-27T16:14:56.322Z,38.40
2018-05-27T16:17:23.883Z,38.70
2018-05-27T16:19:51.166Z,38.70
2018-05-27T16:22:18.093Z,38.40
2018-05-27T16:24:45.046Z,37.10
2018-05-27T16:27:11.997Z,37.70
2018-05-27T16:29:38.846Z,37.70
2018-05-27T16:32:05.797Z,37.50
2018-05-27T16:34:32.749Z,38.10
2018-05-27T16:36:59.699Z,39.20
2018-05-27T16:39:26.651Z,39.20
2018-05-27T16:41:53.497Z,39.50
2018-05-27T16:44:20.348Z,39.10
2018-05-27T16:46:47.301Z,39.40
2018-05-27T16:49:14.349Z,40.30
2018-05-27T16:51:41.100Z,39.20
2018-05-27T16:54:08.048Z,39.70
2018-05-27T16:56:35.000Z,40.20
2018-05-27T16:59:01.850Z,39.20
2018-05-27T17:01:28.698Z,40.00
2018-05-27T17:03:55.649Z,40.90
2018-05-27T17:06:22.606Z,42.10
2018-05-27T17:08:50.367Z,43.70
2018-05-27T17:11:17.214Z,43.70
2018-05-27T17:13:44.064Z,43.60
2018-05-27T17:16:11.017Z,43.60
2018-05-27T17:18:37.761Z,43.70
2018-05-27T17:21:04.713Z,44.70
2018-05-27T17:23:31.562Z,45.00
2018-05-27T17:25:58.514Z,44.70
2018-05-27T17:28:25.462Z,43.50
2018-05-27T17:30:52.317Z,44.40
2018-05-27T17:33:19.160Z,45.00
2018-05-27T17:35:46.008Z,44.60
2018-05-27T17:38:12.756Z,44.40
2018-05-27T17:40:39.706Z,45.50
2018-05-27T17:43:06.661Z,46.00
2018-05-27T17:45:33.612Z,46.20
2018-05-27T17:48:11.616Z,45.30
2018-05-27T17:50:38.564Z,46.50
2018-05-27T17:53:05.516Z,46.70
2018-05-27T17:55:32.361Z,46.30
2018-05-27T17:58:01.259Z,47.10
2018-05-27T18:00:28.126Z,47.40
2018-05-27T18:02:54.955Z,47.40
2018-05-27T18:05:21.908Z,48.10
2018-05-27T18:07:48.857Z,48.80
2018-05-27T18:10:16.523Z,49.60
2018-05-27T18:12:43.479Z,49.60
2018-05-27T18:15:10.427Z,50.20
2018-05-27T18:17:37.280Z,50.70
2018-05-27T18:20:04.123Z,50.60
2018-05-27T18:22:30.974Z,50.80
2018-05-27T18:24:57.924Z,48.80
2018-05-27T18:27:24.876Z,48.70
2018-05-27T18:29:51.619Z,48.00
2018-05-27T18:32:18.569Z,49.00
2018-05-27T18:34:45.422Z,48.30
2018-05-27T18:37:12.268Z,48.90
2018-05-27T18:39:39.124Z,50.40
2018-05-27T18:42:05.965Z,52.20
2018-05-27T18:44:32.917Z,53.00
2018-05-27T18:47:00.690Z,52.00
2018-05-27T18:49:27.637Z,51.90
2018-05-27T18:51:54.590Z,52.30
2018-05-27T18:54:21.540Z,52.50
2018-05-27T18:56:48.389Z,53.30
2018-05-27T18:59:15.440Z,54.60
2018-05-27T19:01:42.391Z,55.00
2018-05-27T19:04:09.352Z,54.80
2018-05-27T19:06:36.191Z,58.10
2018-05-27T19:09:03.245Z,56.40
2018-05-27T19:11:30.093Z,57.60
2018-05-27T19:13:56.944Z,58.00
2018-05-27T19:16:23.790Z,55.70
2018-05-27T19:18:50.541Z,56.40
2018-05-27T19:21:17.488Z,58.00
2018-05-27T19:23:44.440Z,58.80
2018-05-27T19:26:11.339Z,55.50
2018-05-27T19:28:39.674Z,55.00
2018-05-27T19:31:06.622Z,55.00
2018-05-27T19:33:33.471Z,58.50
2018-05-27T19:36:00.328Z,60.20
2018-05-27T19:38:27.272Z,60.30
2018-05-27T19:40:54.119Z,59.70
2018-05-27T19:43:20.883Z,59.40
2018-05-27T19:45:47.845Z,59.80
2018-05-27T19:48:14.767Z,60.50
2018-05-27T19:50:41.722Z,61.20
2018-05-27T19:53:09.387Z,62.00
2018-05-27T19:55:36.748Z,62.70
2018-05-27T19:58:05.234Z,62.90
2018-05-27T20:00:32.183Z,62.80
2018-05-27T20:02:59.136Z,63.30
2018-05-27T20:05:25.983Z,63.10
2018-05-27T20:07:52.832Z,65.20
2018-05-27T20:10:19.680Z,62.10
2018-05-27T20:12:46.425Z,61.90
2018-05-27T20:15:13.383Z,62.00
2018-05-27T20:17:40.433Z,62.90
2018-05-27T20:20:07.283Z,63.60
2018-05-27T20:22:34.128Z,64.50
2018-05-27T20:25:01.084Z,66.20
2018-05-27T20:27:27.929Z,65.50
2018-05-27T20:29:55.083Z,64.80
2018-05-27T20:32:21.932Z,65.30
2018-05-27T20:34:48.884Z,66.80
2018-05-27T20:37:16.959Z,69.80
2018-05-27T20:39:43.910Z,69.30
2018-05-27T20:42:10.764Z,69.40
2018-05-27T20:44:37.714Z,68.90
2018-05-27T20:47:04.662Z,69.70
2018-05-27T20:49:32.451Z,72.40
2018-05-27T20:52:00.002Z,74.30
2018-05-27T20:54:26.844Z,74.30
2018-05-27T20:56:53.795Z,74.60
2018-05-27T20:59:20.749Z,74.50
2018-05-27T21:01:47.699Z,74.80
2018-05-27T21:04:14.957Z,76.70
2018-05-27T21:06:42.952Z,75.70
2018-05-27T21:09:10.291Z,74.90
2018-05-27T21:11:37.241Z,74.80
2018-05-27T21:14:04.191Z,74.50
2018-05-27T21:16:31.142Z,75.20
2018-05-27T21:18:58.096Z,75.30
2018-05-27T21:21:25.774Z,76.20
2018-05-27T21:23:53.530Z,78.20
2018-05-27T21:26:20.379Z,78.10
2018-05-27T21:28:47.226Z,78.60
2018-05-27T21:31:14.179Z,79.00
2018-05-27T21:33:41.129Z,78.60
2018-05-27T21:36:08.082Z,78.50
2018-05-27T21:38:34.928Z,79.00
2018-05-27T21:41:01.675Z,79.40
2018-05-27T21:43:28.525Z,80.60
2018-05-27T21:45:55.784Z,83.20
2018-05-27T21:48:22.636Z,83.30
2018-05-27T21:50:49.786Z,83.40
2018-05-27T21:53:16.741Z,84.10
2018-05-27T21:55:43.688Z,82.80
2018-05-27T21:58:10.437Z,82.90
2018-05-27T22:00:37.360Z,82.30
2018-05-27T22:03:05.054Z,82.90
2018-05-27T22:05:31.799Z,82.80
2018-05-27T22:07:59.057Z,83.40
2018-05-27T22:10:26.009Z,83.90
2018-05-27T22:12:52.962Z,86.10
2018-05-27T22:15:19.913Z,87.90
2018-05-27T22:17:46.656Z,88.50
2018-05-27T22:20:13.505Z,89.30
2018-05-27T22:22:40.866Z,90.30
2018-05-27T22:25:07.717Z,90.60
2018-05-27T22:27:34.563Z,91.80
2018-05-27T22:30:01.517Z,93.20
2018-05-27T22:32:28.467Z,93.80
2018-05-27T22:34:55.415Z,95.80
2018-05-27T22:37:22.264Z,97.50
2018-05-27T22:39:49.114Z,99.70
2018-05-27T22:42:16.063Z,99.90
2018-05-27T22:44:42.812Z,99.90
2018-05-27T22:47:09.764Z,99.90
2018-05-27T22:49:36.712Z,99.90
2018-05-27T22:52:04.380Z,99.90
2018-05-27T22:54:31.434Z,99.90
2018-05-27T22:56:58.487Z,99.90
2018-05-27T22:59:25.336Z,99.90
2018-05-27T23:01:52.491Z,99.90
2018-05-27T23:04:19.643Z,99.90
2018-05-27T23:06:46.498Z,99.90
2018-05-27T23:09:14.059Z,99.90
2018-05-27T23:11:40.803Z,99.90
2018-05-27T23:14:07.760Z,99.90
2018-05-27T23:16:34.605Z,99.90
2018-05-27T23:19:01.458Z,99.90
2018-05-27T23:21:29.019Z,99.90
2018-05-27T23:23:55.972Z,99.90
2018-05-27T23:26:22.923Z,99.90
2018-05-27T23:28:50.486Z,99.90
2018-05-27T23:31:17.337Z,99.90
2018-05-27T23:33:44.183Z,99.90
2018-05-27T23:36:11.200Z,99.90
2018-05-27T23:38:37.988Z,99.90
2018-05-27T23:41:04.750Z,99.90
2018-05-27T23:43:31.680Z,99.90
2018-05-27T23:45:58.426Z,99.90
2018-05-27T23:48:25.379Z,99.90
2018-05-27T23:50:52.331Z,99.90
2018-05-27T23:53:19.895Z,99.90
2018-05-27T23:55:46.847Z,99.90
2018-05-27T23:58:13.694Z,99.90
